sensor_id;sensor_type;location;lat;lon;timestamp;P1;durP1;ratioP1;P2;durP2;ratioP2
21038;SDS011;10678;51.002;4.786;2022-12-18T00:01:34;51.33;;;23.73;;
21038;SDS011;10678;51.002;4.786;2022-12-18T00:04:02;56.73;;;24.77;;
21038;SDS011;10678;51.002;4.786;2022-12-18T00:06:29;54.07;;;23.10;;
21038;SDS011;10678;51.002;4.786;2022-12-18T00:08:56;57.57;;;24.87;;
21038;SDS011;10678;51.002;4.786;2022-12-18T00:11:23;60.60;;;24.27;;
21038;SDS011;10678;51.002;4.786;2022-12-18T00:13:52;58.23;;;25.00;;
21038;SDS011;10678;51.002;4.786;2022-12-18T00:16:20;48.10;;;22.13;;
21038;SDS011;10678;51.002;4.786;2022-12-18T00:18:48;56.70;;;23.47;;
21038;SDS011;10678;51.002;4.786;2022-12-18T00:21:15;51.47;;;21.97;;
21038;SDS011;10678;51.002;4.786;2022-12-18T00:23:42;54.47;;;24.30;;
21038;SDS011;10678;51.002;4.786;2022-12-18T00:26:12;55.40;;;24.83;;
21038;SDS011;10678;51.002;4.786;2022-12-18T00:28:40;50.10;;;22.87;;
21038;SDS011;10678;51.002;4.786;2022-12-18T00:31:07;64.83;;;24.77;;
21038;SDS011;10678;51.002;4.786;2022-12-18T00:33:35;58.50;;;22.73;;
21038;SDS011;10678;51.002;4.786;2022-12-18T00:36:05;57.57;;;22.90;;
21038;SDS011;10678;51.002;4.786;2022-12-18T00:38:33;50.47;;;21.97;;
21038;SDS011;10678;51.002;4.786;2022-12-18T00:40:59;46.30;;;21.37;;
21038;SDS011;10678;51.002;4.786;2022-12-18T00:43:24;47.47;;;22.13;;
21038;SDS011;10678;51.002;4.786;2022-12-18T00:45:50;53.07;;;21.20;;
21038;SDS011;10678;51.002;4.786;2022-12-18T00:48:16;60.03;;;22.57;;
21038;SDS011;10678;51.002;4.786;2022-12-18T00:50:41;54.07;;;22.23;;
21038;SDS011;10678;51.002;4.786;2022-12-18T00:53:07;51.73;;;22.27;;
21038;SDS011;10678;51.002;4.786;2022-12-18T00:55:32;52.63;;;21.37;;
21038;SDS011;10678;51.002;4.786;2022-12-18T00:57:58;45.67;;;22.00;;
21038;SDS011;10678;51.002;4.786;2022-12-18T01:00:23;49.03;;;21.97;;
21038;SDS011;10678;51.002;4.786;2022-12-18T01:02:49;48.70;;;21.63;;
21038;SDS011;10678;51.002;4.786;2022-12-18T01:05:15;52.07;;;21.27;;
21038;SDS011;10678;51.002;4.786;2022-12-18T01:07:41;46.13;;;21.50;;
21038;SDS011;10678;51.002;4.786;2022-12-18T01:10:07;51.20;;;21.13;;
21038;SDS011;10678;51.002;4.786;2022-12-18T01:12:34;52.50;;;21.27;;
21038;SDS011;10678;51.002;4.786;2022-12-18T01:15:00;47.33;;;19.90;;
21038;SDS011;10678;51.002;4.786;2022-12-18T01:17:26;52.57;;;23.60;;
21038;SDS011;10678;51.002;4.786;2022-12-18T01:19:52;49.70;;;22.23;;
21038;SDS011;10678;51.002;4.786;2022-12-18T01:22:18;41.20;;;19.43;;
21038;SDS011;10678;51.002;4.786;2022-12-18T01:24:43;46.87;;;20.33;;
21038;SDS011;10678;51.002;4.786;2022-12-18T01:27:09;50.70;;;22.00;;
21038;SDS011;10678;51.002;4.786;2022-12-18T01:29:34;50.13;;;25.07;;
21038;SDS011;10678;51.002;4.786;2022-12-18T01:32:00;50.97;;;22.40;;
21038;SDS011;10678;51.002;4.786;2022-12-18T01:34:25;51.97;;;22.47;;
21038;SDS011;10678;51.002;4.786;2022-12-18T01:36:51;57.77;;;23.13;;
21038;SDS011;10678;51.002;4.786;2022-12-18T01:39:17;46.43;;;22.60;;
21038;SDS011;10678;51.002;4.786;2022-12-18T01:41:44;54.10;;;22.07;;
21038;SDS011;10678;51.002;4.786;2022-12-18T01:50:09;47.40;;;19.87;;
21038;SDS011;10678;51.002;4.786;2022-12-18T01:52:56;47.17;;;20.17;;
21038;SDS011;10678;51.002;4.786;2022-12-18T01:55:26;49.07;;;19.87;;
21038;SDS011;10678;51.002;4.786;2022-12-18T01:57:55;49.37;;;19.97;;
21038;SDS011;10678;51.002;4.786;2022-12-18T02:00:23;53.07;;;22.07;;
21038;SDS011;10678;51.002;4.786;2022-12-18T02:02:50;50.40;;;20.93;;
21038;SDS011;10678;51.002;4.786;2022-12-18T02:05:17;47.57;;;21.67;;
21038;SDS011;10678;51.002;4.786;2022-12-18T02:08:11;46.37;;;21.13;;
21038;SDS011;10678;51.002;4.786;2022-12-18T02:10:52;44.10;;;19.73;;
21038;SDS011;10678;51.002;4.786;2022-12-18T02:16:12;49.50;;;20.60;;
21038;SDS011;10678;51.002;4.786;2022-12-18T02:18:56;46.37;;;19.47;;
21038;SDS011;10678;51.002;4.786;2022-12-18T02:24:03;55.47;;;20.30;;
21038;SDS011;10678;51.002;4.786;2022-12-18T02:29:31;44.27;;;20.47;;
21038;SDS011;10678;51.002;4.786;2022-12-18T02:32:02;41.57;;;18.63;;
21038;SDS011;10678;51.002;4.786;2022-12-18T02:34:32;52.53;;;20.83;;
21038;SDS011;10678;51.002;4.786;2022-12-18T02:37:03;45.93;;;20.27;;
21038;SDS011;10678;51.002;4.786;2022-12-18T02:39:32;39.70;;;19.00;;
21038;SDS011;10678;51.002;4.786;2022-12-18T02:42:00;48.53;;;19.47;;
21038;SDS011;10678;51.002;4.786;2022-12-18T02:44:33;45.67;;;19.70;;
21038;SDS011;10678;51.002;4.786;2022-12-18T02:46:59;45.07;;;19.37;;
21038;SDS011;10678;51.002;4.786;2022-12-18T02:49:34;39.90;;;17.97;;
21038;SDS011;10678;51.002;4.786;2022-12-18T02:52:19;38.67;;;18.47;;
21038;SDS011;10678;51.002;4.786;2022-12-18T02:57:54;43.83;;;18.97;;
21038;SDS011;10678;51.002;4.786;2022-12-18T03:00:24;42.17;;;20.17;;
21038;SDS011;10678;51.002;4.786;2022-12-18T03:02:59;49.13;;;19.60;;
21038;SDS011;10678;51.002;4.786;2022-12-18T03:05:44;39.73;;;19.47;;
21038;SDS011;10678;51.002;4.786;2022-12-18T03:08:23;41.53;;;18.67;;
21038;SDS011;10678;51.002;4.786;2022-12-18T03:11:02;45.93;;;20.30;;
21038;SDS011;10678;51.002;4.786;2022-12-18T03:13:49;55.20;;;20.43;;
21038;SDS011;10678;51.002;4.786;2022-12-18T03:16:22;39.90;;;18.57;;
21038;SDS011;10678;51.002;4.786;2022-12-18T03:18:59;35.33;;;16.20;;
21038;SDS011;10678;51.002;4.786;2022-12-18T03:21:29;46.40;;;18.03;;
21038;SDS011;10678;51.002;4.786;2022-12-18T03:24:00;40.80;;;17.00;;
21038;SDS011;10678;51.002;4.786;2022-12-18T03:26:28;43.23;;;19.03;;
21038;SDS011;10678;51.002;4.786;2022-12-18T03:28:59;48.70;;;19.70;;
21038;SDS011;10678;51.002;4.786;2022-12-18T03:31:32;43.57;;;18.43;;
21038;SDS011;10678;51.002;4.786;2022-12-18T03:33:58;43.23;;;18.40;;
21038;SDS011;10678;51.002;4.786;2022-12-18T03:36:30;38.83;;;16.97;;
21038;SDS011;10678;51.002;4.786;2022-12-18T03:38:55;38.80;;;18.17;;
21038;SDS011;10678;51.002;4.786;2022-12-18T03:41:34;46.13;;;19.03;;
21038;SDS011;10678;51.002;4.786;2022-12-18T03:44:14;35.43;;;17.47;;
21038;SDS011;10678;51.002;4.786;2022-12-18T03:46:49;34.67;;;15.87;;
21038;SDS011;10678;51.002;4.786;2022-12-18T03:49:33;43.77;;;17.43;;
21038;SDS011;10678;51.002;4.786;2022-12-18T03:52:19;38.17;;;16.93;;
21038;SDS011;10678;51.002;4.786;2022-12-18T03:54:58;43.60;;;16.23;;
21038;SDS011;10678;51.002;4.786;2022-12-18T03:57:27;41.17;;;16.43;;
21038;SDS011;10678;51.002;4.786;2022-12-18T03:59:56;38.57;;;17.63;;
21038;SDS011;10678;51.002;4.786;2022-12-18T04:02:26;32.90;;;16.00;;
21038;SDS011;10678;51.002;4.786;2022-12-18T04:04:53;35.43;;;16.63;;
21038;SDS011;10678;51.002;4.786;2022-12-18T04:07:23;35.63;;;14.37;;
21038;SDS011;10678;51.002;4.786;2022-12-18T04:09:49;34.00;;;15.97;;
21038;SDS011;10678;51.002;4.786;2022-12-18T04:12:18;40.93;;;17.60;;
21038;SDS011;10678;51.002;4.786;2022-12-18T04:14:44;39.73;;;18.53;;
21038;SDS011;10678;51.002;4.786;2022-12-18T04:17:10;36.57;;;16.10;;
21038;SDS011;10678;51.002;4.786;2022-12-18T04:19:35;38.87;;;17.67;;
21038;SDS011;10678;51.002;4.786;2022-12-18T04:22:01;49.00;;;20.70;;
21038;SDS011;10678;51.002;4.786;2022-12-18T04:24:27;37.47;;;18.37;;
21038;SDS011;10678;51.002;4.786;2022-12-18T04:26:52;37.13;;;18.20;;
21038;SDS011;10678;51.002;4.786;2022-12-18T04:29:19;42.63;;;18.83;;
21038;SDS011;10678;51.002;4.786;2022-12-18T04:31:44;38.67;;;15.90;;
21038;SDS011;10678;51.002;4.786;2022-12-18T04:34:10;39.47;;;17.97;;
21038;SDS011;10678;51.002;4.786;2022-12-18T04:36:35;37.43;;;16.50;;
21038;SDS011;10678;51.002;4.786;2022-12-18T04:39:01;45.07;;;16.80;;
21038;SDS011;10678;51.002;4.786;2022-12-18T04:41:26;40.97;;;16.57;;
21038;SDS011;10678;51.002;4.786;2022-12-18T04:43:52;33.20;;;16.10;;
21038;SDS011;10678;51.002;4.786;2022-12-18T04:46:17;31.93;;;15.20;;
21038;SDS011;10678;51.002;4.786;2022-12-18T04:48:45;35.87;;;15.10;;
21038;SDS011;10678;51.002;4.786;2022-12-18T04:51:11;36.27;;;15.23;;
21038;SDS011;10678;51.002;4.786;2022-12-18T04:53:37;32.00;;;14.80;;
21038;SDS011;10678;51.002;4.786;2022-12-18T04:56:04;36.40;;;16.00;;
21038;SDS011;10678;51.002;4.786;2022-12-18T04:58:31;38.03;;;16.63;;
21038;SDS011;10678;51.002;4.786;2022-12-18T05:00:56;31.87;;;15.60;;
21038;SDS011;10678;51.002;4.786;2022-12-18T05:03:22;35.60;;;16.20;;
21038;SDS011;10678;51.002;4.786;2022-12-18T05:05:51;34.20;;;15.20;;
21038;SDS011;10678;51.002;4.786;2022-12-18T05:08:17;35.27;;;15.50;;
21038;SDS011;10678;51.002;4.786;2022-12-18T05:10:43;33.07;;;15.03;;
21038;SDS011;10678;51.002;4.786;2022-12-18T05:13:08;31.87;;;15.93;;
21038;SDS011;10678;51.002;4.786;2022-12-18T05:15:34;28.27;;;13.17;;
21038;SDS011;10678;51.002;4.786;2022-12-18T05:18:00;33.23;;;13.47;;
21038;SDS011;10678;51.002;4.786;2022-12-18T05:20:27;30.47;;;14.67;;
21038;SDS011;10678;51.002;4.786;2022-12-18T05:22:53;28.03;;;13.57;;
21038;SDS011;10678;51.002;4.786;2022-12-18T05:25:19;37.70;;;17.53;;
21038;SDS011;10678;51.002;4.786;2022-12-18T05:27:45;32.17;;;15.17;;
21038;SDS011;10678;51.002;4.786;2022-12-18T05:30:11;30.30;;;15.17;;
21038;SDS011;10678;51.002;4.786;2022-12-18T05:32:38;26.80;;;13.97;;
21038;SDS011;10678;51.002;4.786;2022-12-18T05:35:04;33.57;;;15.47;;
21038;SDS011;10678;51.002;4.786;2022-12-18T05:37:32;35.33;;;14.87;;
21038;SDS011;10678;51.002;4.786;2022-12-18T05:39:57;31.03;;;15.73;;
21038;SDS011;10678;51.002;4.786;2022-12-18T05:42:23;30.10;;;13.70;;
21038;SDS011;10678;51.002;4.786;2022-12-18T05:44:48;28.20;;;13.23;;
21038;SDS011;10678;51.002;4.786;2022-12-18T05:47:14;35.27;;;15.07;;
21038;SDS011;10678;51.002;4.786;2022-12-18T05:49:40;32.67;;;13.40;;
21038;SDS011;10678;51.002;4.786;2022-12-18T05:52:06;36.10;;;14.00;;
21038;SDS011;10678;51.002;4.786;2022-12-18T05:54:31;32.43;;;14.60;;
21038;SDS011;10678;51.002;4.786;2022-12-18T05:56:57;33.30;;;14.13;;
21038;SDS011;10678;51.002;4.786;2022-12-18T05:59:23;24.17;;;11.93;;
21038;SDS011;10678;51.002;4.786;2022-12-18T06:01:49;37.00;;;13.97;;
21038;SDS011;10678;51.002;4.786;2022-12-18T06:04:14;31.03;;;13.43;;
21038;SDS011;10678;51.002;4.786;2022-12-18T06:06:40;31.47;;;14.87;;
21038;SDS011;10678;51.002;4.786;2022-12-18T06:09:06;32.50;;;14.57;;
21038;SDS011;10678;51.002;4.786;2022-12-18T06:11:33;34.10;;;14.40;;
21038;SDS011;10678;51.002;4.786;2022-12-18T06:14:00;37.93;;;14.03;;
21038;SDS011;10678;51.002;4.786;2022-12-18T06:16:29;34.73;;;14.53;;
21038;SDS011;10678;51.002;4.786;2022-12-18T06:18:56;29.00;;;14.00;;
21038;SDS011;10678;51.002;4.786;2022-12-18T06:21:22;34.40;;;16.00;;
21038;SDS011;10678;51.002;4.786;2022-12-18T06:23:48;34.20;;;14.53;;
21038;SDS011;10678;51.002;4.786;2022-12-18T06:26:13;36.17;;;16.07;;
21038;SDS011;10678;51.002;4.786;2022-12-18T06:28:40;38.77;;;15.07;;
21038;SDS011;10678;51.002;4.786;2022-12-18T06:31:05;35.43;;;16.10;;
21038;SDS011;10678;51.002;4.786;2022-12-18T06:33:31;38.07;;;15.77;;
21038;SDS011;10678;51.002;4.786;2022-12-18T06:36:02;30.20;;;14.20;;
21038;SDS011;10678;51.002;4.786;2022-12-18T06:38:29;29.90;;;14.00;;
21038;SDS011;10678;51.002;4.786;2022-12-18T06:40:55;28.63;;;12.77;;
21038;SDS011;10678;51.002;4.786;2022-12-18T06:43:21;35.20;;;14.90;;
21038;SDS011;10678;51.002;4.786;2022-12-18T06:45:47;34.43;;;14.70;;
21038;SDS011;10678;51.002;4.786;2022-12-18T06:48:17;31.27;;;13.73;;
21038;SDS011;10678;51.002;4.786;2022-12-18T06:50:46;29.13;;;13.80;;
21038;SDS011;10678;51.002;4.786;2022-12-18T06:53:12;31.73;;;14.03;;
21038;SDS011;10678;51.002;4.786;2022-12-18T06:55:38;35.47;;;13.60;;
21038;SDS011;10678;51.002;4.786;2022-12-18T06:58:03;32.43;;;14.17;;
21038;SDS011;10678;51.002;4.786;2022-12-18T07:00:29;31.60;;;13.27;;
21038;SDS011;10678;51.002;4.786;2022-12-18T07:02:55;24.63;;;12.00;;
21038;SDS011;10678;51.002;4.786;2022-12-18T07:05:20;25.63;;;11.43;;
21038;SDS011;10678;51.002;4.786;2022-12-18T07:07:46;27.80;;;12.47;;
21038;SDS011;10678;51.002;4.786;2022-12-18T07:10:11;23.77;;;11.43;;
21038;SDS011;10678;51.002;4.786;2022-12-18T07:12:37;24.03;;;12.30;;
21038;SDS011;10678;51.002;4.786;2022-12-18T07:15:03;22.13;;;10.77;;
21038;SDS011;10678;51.002;4.786;2022-12-18T07:17:29;20.20;;;10.93;;
21038;SDS011;10678;51.002;4.786;2022-12-18T07:19:54;23.33;;;12.10;;
21038;SDS011;10678;51.002;4.786;2022-12-18T07:22:20;29.10;;;11.87;;
21038;SDS011;10678;51.002;4.786;2022-12-18T07:24:46;23.13;;;11.47;;
21038;SDS011;10678;51.002;4.786;2022-12-18T07:27:12;25.53;;;11.47;;
21038;SDS011;10678;51.002;4.786;2022-12-18T07:29:38;27.83;;;13.30;;
21038;SDS011;10678;51.002;4.786;2022-12-18T07:32:03;30.67;;;12.60;;
21038;SDS011;10678;51.002;4.786;2022-12-18T07:34:29;28.83;;;12.37;;
21038;SDS011;10678;51.002;4.786;2022-12-18T07:36:54;32.63;;;13.27;;
21038;SDS011;10678;51.002;4.786;2022-12-18T07:39:20;28.00;;;12.60;;
21038;SDS011;10678;51.002;4.786;2022-12-18T07:41:46;27.23;;;11.43;;
21038;SDS011;10678;51.002;4.786;2022-12-18T07:44:31;24.17;;;11.47;;
21038;SDS011;10678;51.002;4.786;2022-12-18T07:46:57;21.53;;;10.53;;
21038;SDS011;10678;51.002;4.786;2022-12-18T07:49:22;21.37;;;10.47;;
21038;SDS011;10678;51.002;4.786;2022-12-18T07:51:48;24.80;;;11.63;;
21038;SDS011;10678;51.002;4.786;2022-12-18T07:54:14;22.13;;;11.50;;
21038;SDS011;10678;51.002;4.786;2022-12-18T07:56:39;20.27;;;10.77;;
21038;SDS011;10678;51.002;4.786;2022-12-18T07:59:05;22.40;;;11.10;;
21038;SDS011;10678;51.002;4.786;2022-12-18T08:01:31;22.13;;;10.10;;
21038;SDS011;10678;51.002;4.786;2022-12-18T08:03:57;28.03;;;12.17;;
21038;SDS011;10678;51.002;4.786;2022-12-18T08:06:23;22.83;;;11.03;;
21038;SDS011;10678;51.002;4.786;2022-12-18T08:08:49;19.33;;;9.37;;
21038;SDS011;10678;51.002;4.786;2022-12-18T08:11:19;28.73;;;11.23;;
21038;SDS011;10678;51.002;4.786;2022-12-18T08:13:44;19.90;;;10.47;;
21038;SDS011;10678;51.002;4.786;2022-12-18T08:16:10;26.97;;;12.50;;
21038;SDS011;10678;51.002;4.786;2022-12-18T08:18:36;25.33;;;11.77;;
21038;SDS011;10678;51.002;4.786;2022-12-18T08:23:38;21.93;;;11.43;;
21038;SDS011;10678;51.002;4.786;2022-12-18T08:26:04;28.47;;;13.80;;
21038;SDS011;10678;51.002;4.786;2022-12-18T08:28:30;30.00;;;12.63;;
21038;SDS011;10678;51.002;4.786;2022-12-18T08:30:56;27.80;;;12.13;;
21038;SDS011;10678;51.002;4.786;2022-12-18T08:33:22;24.20;;;12.90;;
21038;SDS011;10678;51.002;4.786;2022-12-18T08:35:47;25.37;;;12.63;;
21038;SDS011;10678;51.002;4.786;2022-12-18T08:38:13;28.73;;;11.53;;
21038;SDS011;10678;51.002;4.786;2022-12-18T08:40:38;22.03;;;11.50;;
21038;SDS011;10678;51.002;4.786;2022-12-18T08:43:04;24.70;;;12.50;;
21038;SDS011;10678;51.002;4.786;2022-12-18T08:45:48;22.17;;;10.90;;
21038;SDS011;10678;51.002;4.786;2022-12-18T08:48:15;25.83;;;12.00;;
21038;SDS011;10678;51.002;4.786;2022-12-18T08:50:40;28.53;;;11.67;;
21038;SDS011;10678;51.002;4.786;2022-12-18T08:53:06;22.33;;;10.77;;
21038;SDS011;10678;51.002;4.786;2022-12-18T08:55:31;23.43;;;12.40;;
21038;SDS011;10678;51.002;4.786;2022-12-18T08:57:57;25.83;;;11.43;;
21038;SDS011;10678;51.002;4.786;2022-12-18T09:00:23;23.57;;;10.73;;
21038;SDS011;10678;51.002;4.786;2022-12-18T09:02:49;24.37;;;11.30;;
21038;SDS011;10678;51.002;4.786;2022-12-18T09:05:15;25.97;;;11.23;;
21038;SDS011;10678;51.002;4.786;2022-12-18T09:07:41;21.40;;;11.20;;
21038;SDS011;10678;51.002;4.786;2022-12-18T09:10:06;18.00;;;10.03;;
21038;SDS011;10678;51.002;4.786;2022-12-18T09:12:32;20.57;;;11.23;;
21038;SDS011;10678;51.002;4.786;2022-12-18T09:14:57;20.17;;;9.90;;
21038;SDS011;10678;51.002;4.786;2022-12-18T09:17:24;20.57;;;10.40;;
21038;SDS011;10678;51.002;4.786;2022-12-18T09:19:49;20.17;;;10.67;;
21038;SDS011;10678;51.002;4.786;2022-12-18T09:22:15;19.63;;;10.00;;
21038;SDS011;10678;51.002;4.786;2022-12-18T09:24:41;22.27;;;10.83;;
21038;SDS011;10678;51.002;4.786;2022-12-18T09:27:06;21.73;;;9.93;;
21038;SDS011;10678;51.002;4.786;2022-12-18T09:29:32;18.10;;;9.80;;
21038;SDS011;10678;51.002;4.786;2022-12-18T09:31:58;17.77;;;9.70;;
21038;SDS011;10678;51.002;4.786;2022-12-18T09:34:23;22.07;;;10.43;;
21038;SDS011;10678;51.002;4.786;2022-12-18T09:36:49;23.87;;;10.97;;
21038;SDS011;10678;51.002;4.786;2022-12-18T09:39:15;18.43;;;9.70;;
21038;SDS011;10678;51.002;4.786;2022-12-18T09:41:42;19.83;;;9.30;;
21038;SDS011;10678;51.002;4.786;2022-12-18T09:49:36;22.53;;;10.00;;
21038;SDS011;10678;51.002;4.786;2022-12-18T09:52:11;20.77;;;8.80;;
21038;SDS011;10678;51.002;4.786;2022-12-18T09:54:50;19.70;;;9.17;;
21038;SDS011;10678;51.002;4.786;2022-12-18T09:57:29;20.07;;;9.43;;
21038;SDS011;10678;51.002;4.786;2022-12-18T10:00:03;16.27;;;8.77;;
21038;SDS011;10678;51.002;4.786;2022-12-18T10:02:44;17.67;;;9.00;;
21038;SDS011;10678;51.002;4.786;2022-12-18T10:05:11;21.57;;;9.27;;
21038;SDS011;10678;51.002;4.786;2022-12-18T10:07:58;14.57;;;7.93;;
21038;SDS011;10678;51.002;4.786;2022-12-18T10:10:48;19.50;;;9.20;;
21038;SDS011;10678;51.002;4.786;2022-12-18T10:16:16;15.37;;;8.70;;
21038;SDS011;10678;51.002;4.786;2022-12-18T10:18:59;19.23;;;9.57;;
21038;SDS011;10678;51.002;4.786;2022-12-18T10:24:12;17.23;;;8.63;;
21038;SDS011;10678;51.002;4.786;2022-12-18T10:27:11;19.43;;;8.60;;
21038;SDS011;10678;51.002;4.786;2022-12-18T10:29:37;21.33;;;9.10;;
21038;SDS011;10678;51.002;4.786;2022-12-18T10:32:03;16.47;;;8.57;;
21038;SDS011;10678;51.002;4.786;2022-12-18T10:34:29;17.20;;;8.20;;
21038;SDS011;10678;51.002;4.786;2022-12-18T10:36:55;16.07;;;8.80;;
21038;SDS011;10678;51.002;4.786;2022-12-18T10:39:23;20.80;;;10.17;;
21038;SDS011;10678;51.002;4.786;2022-12-18T10:41:51;15.57;;;8.83;;
21038;SDS011;10678;51.002;4.786;2022-12-18T10:46:49;16.67;;;8.93;;
21038;SDS011;10678;51.002;4.786;2022-12-18T10:49:25;17.27;;;7.67;;
21038;SDS011;10678;51.002;4.786;2022-12-18T10:52:25;17.27;;;9.33;;
21038;SDS011;10678;51.002;4.786;2022-12-18T10:54:48;17.77;;;8.83;;
21038;SDS011;10678;51.002;4.786;2022-12-18T10:59:59;19.03;;;10.50;;
21038;SDS011;10678;51.002;4.786;2022-12-18T11:02:38;26.07;;;12.23;;
21038;SDS011;10678;51.002;4.786;2022-12-18T11:05:22;18.67;;;11.17;;
21038;SDS011;10678;51.002;4.786;2022-12-18T11:07:50;16.63;;;9.87;;
21038;SDS011;10678;51.002;4.786;2022-12-18T11:10:19;15.83;;;8.80;;
21038;SDS011;10678;51.002;4.786;2022-12-18T11:12:46;17.17;;;9.50;;
21038;SDS011;10678;51.002;4.786;2022-12-18T11:15:29;17.53;;;9.23;;
21038;SDS011;10678;51.002;4.786;2022-12-18T11:17:55;16.33;;;8.03;;
21038;SDS011;10678;51.002;4.786;2022-12-18T11:23:00;19.57;;;9.10;;
21038;SDS011;10678;51.002;4.786;2022-12-18T11:25:29;16.53;;;9.00;;
21038;SDS011;10678;51.002;4.786;2022-12-18T11:27:56;15.97;;;8.93;;
21038;SDS011;10678;51.002;4.786;2022-12-18T11:30:32;19.43;;;9.40;;
21038;SDS011;10678;51.002;4.786;2022-12-18T11:38:26;18.77;;;8.70;;
21038;SDS011;10678;51.002;4.786;2022-12-18T11:44:13;19.33;;;9.27;;
21038;SDS011;10678;51.002;4.786;2022-12-18T11:46:45;15.30;;;8.67;;
21038;SDS011;10678;51.002;4.786;2022-12-18T11:51:58;18.73;;;10.13;;
21038;SDS011;10678;51.002;4.786;2022-12-18T11:54:34;16.27;;;9.37;;
21038;SDS011;10678;51.002;4.786;2022-12-18T11:59:44;17.17;;;9.50;;
21038;SDS011;10678;51.002;4.786;2022-12-18T12:05:04;16.63;;;9.43;;
21038;SDS011;10678;51.002;4.786;2022-12-18T12:32:07;20.43;;;9.97;;
21038;SDS011;10678;51.002;4.786;2022-12-18T12:34:43;17.17;;;9.80;;
21038;SDS011;10678;51.002;4.786;2022-12-18T12:37:33;21.07;;;11.40;;
21038;SDS011;10678;51.002;4.786;2022-12-18T12:40:13;21.60;;;10.77;;
21038;SDS011;10678;51.002;4.786;2022-12-18T12:42:47;21.77;;;10.63;;
21038;SDS011;10678;51.002;4.786;2022-12-18T12:45:40;18.47;;;10.47;;
21038;SDS011;10678;51.002;4.786;2022-12-18T12:48:46;18.30;;;10.53;;
21038;SDS011;10678;51.002;4.786;2022-12-18T12:53:46;19.63;;;11.60;;
21038;SDS011;10678;51.002;4.786;2022-12-18T12:56:13;19.93;;;10.23;;
21038;SDS011;10678;51.002;4.786;2022-12-18T12:59:02;19.83;;;11.20;;
21038;SDS011;10678;51.002;4.786;2022-12-18T13:01:40;20.13;;;10.60;;
21038;SDS011;10678;51.002;4.786;2022-12-18T13:04:40;20.70;;;10.53;;
21038;SDS011;10678;51.002;4.786;2022-12-18T13:15:26;19.03;;;10.33;;
21038;SDS011;10678;51.002;4.786;2022-12-18T13:18:03;23.30;;;11.40;;
21038;SDS011;10678;51.002;4.786;2022-12-18T13:23:00;19.63;;;10.73;;
21038;SDS011;10678;51.002;4.786;2022-12-18T13:25:43;21.47;;;11.20;;
21038;SDS011;10678;51.002;4.786;2022-12-18T13:28:13;17.20;;;10.00;;
21038;SDS011;10678;51.002;4.786;2022-12-18T13:30:49;18.17;;;10.43;;
21038;SDS011;10678;51.002;4.786;2022-12-18T13:40:57;20.93;;;10.70;;
21038;SDS011;10678;51.002;4.786;2022-12-18T13:43:26;19.47;;;10.77;;
21038;SDS011;10678;51.002;4.786;2022-12-18T13:48:33;20.10;;;11.63;;
21038;SDS011;10678;51.002;4.786;2022-12-18T13:51:06;23.27;;;12.03;;
21038;SDS011;10678;51.002;4.786;2022-12-18T13:53:38;21.23;;;12.00;;
21038;SDS011;10678;51.002;4.786;2022-12-18T13:56:08;19.77;;;11.27;;
21038;SDS011;10678;51.002;4.786;2022-12-18T13:58:33;22.97;;;10.87;;
21038;SDS011;10678;51.002;4.786;2022-12-18T14:00:59;18.37;;;10.43;;
21038;SDS011;10678;51.002;4.786;2022-12-18T14:03:27;19.57;;;11.20;;
21038;SDS011;10678;51.002;4.786;2022-12-18T14:05:56;22.70;;;12.10;;
21038;SDS011;10678;51.002;4.786;2022-12-18T14:08:27;22.33;;;12.00;;
21038;SDS011;10678;51.002;4.786;2022-12-18T14:10:58;21.53;;;12.47;;
21038;SDS011;10678;51.002;4.786;2022-12-18T14:13:34;22.47;;;12.03;;
21038;SDS011;10678;51.002;4.786;2022-12-18T14:16:04;20.20;;;12.27;;
21038;SDS011;10678;51.002;4.786;2022-12-18T14:18:38;25.03;;;12.13;;
21038;SDS011;10678;51.002;4.786;2022-12-18T14:21:26;24.17;;;12.67;;
21038;SDS011;10678;51.002;4.786;2022-12-18T14:24:02;22.13;;;12.97;;
21038;SDS011;10678;51.002;4.786;2022-12-18T14:26:38;26.67;;;14.13;;
21038;SDS011;10678;51.002;4.786;2022-12-18T14:29:37;30.13;;;14.13;;
21038;SDS011;10678;51.002;4.786;2022-12-18T14:32:07;25.13;;;13.67;;
21038;SDS011;10678;51.002;4.786;2022-12-18T14:34:35;24.40;;;13.17;;
21038;SDS011;10678;51.002;4.786;2022-12-18T14:37:01;22.40;;;13.23;;
21038;SDS011;10678;51.002;4.786;2022-12-18T14:39:27;25.20;;;13.70;;
21038;SDS011;10678;51.002;4.786;2022-12-18T14:41:53;28.30;;;15.17;;
21038;SDS011;10678;51.002;4.786;2022-12-18T14:44:19;23.43;;;13.70;;
21038;SDS011;10678;51.002;4.786;2022-12-18T14:46:46;24.73;;;13.30;;
21038;SDS011;10678;51.002;4.786;2022-12-18T14:49:32;26.87;;;12.87;;
21038;SDS011;10678;51.002;4.786;2022-12-18T14:51:59;24.27;;;13.13;;
21038;SDS011;10678;51.002;4.786;2022-12-18T14:54:28;23.97;;;13.53;;
21038;SDS011;10678;51.002;4.786;2022-12-18T14:56:59;24.30;;;13.37;;
21038;SDS011;10678;51.002;4.786;2022-12-18T14:59:44;27.27;;;13.60;;
21038;SDS011;10678;51.002;4.786;2022-12-18T15:04:36;28.10;;;14.50;;
21038;SDS011;10678;51.002;4.786;2022-12-18T15:10:01;32.13;;;15.90;;
21038;SDS011;10678;51.002;4.786;2022-12-18T15:12:39;24.17;;;13.00;;
21038;SDS011;10678;51.002;4.786;2022-12-18T15:18:01;26.47;;;13.30;;
21038;SDS011;10678;51.002;4.786;2022-12-18T15:25:45;28.33;;;14.00;;
21038;SDS011;10678;51.002;4.786;2022-12-18T15:28:16;30.33;;;14.90;;
21038;SDS011;10678;51.002;4.786;2022-12-18T15:33:38;28.77;;;14.10;;
21038;SDS011;10678;51.002;4.786;2022-12-18T15:36:07;29.50;;;14.93;;
21038;SDS011;10678;51.002;4.786;2022-12-18T15:38:34;27.70;;;14.33;;
21038;SDS011;10678;51.002;4.786;2022-12-18T15:41:00;30.37;;;13.10;;
21038;SDS011;10678;51.002;4.786;2022-12-18T15:43:26;28.83;;;13.67;;
21038;SDS011;10678;51.002;4.786;2022-12-18T15:45:59;33.90;;;15.57;;
21038;SDS011;10678;51.002;4.786;2022-12-18T15:48:39;27.80;;;14.07;;
21038;SDS011;10678;51.002;4.786;2022-12-18T15:51:11;25.97;;;13.57;;
21038;SDS011;10678;51.002;4.786;2022-12-18T15:53:39;30.50;;;13.80;;
21038;SDS011;10678;51.002;4.786;2022-12-18T15:56:08;28.53;;;14.77;;
21038;SDS011;10678;51.002;4.786;2022-12-18T15:58:54;29.67;;;14.83;;
21038;SDS011;10678;51.002;4.786;2022-12-18T16:01:20;28.13;;;13.80;;
21038;SDS011;10678;51.002;4.786;2022-12-18T16:03:47;31.40;;;14.90;;
21038;SDS011;10678;51.002;4.786;2022-12-18T16:06:13;30.13;;;13.70;;
21038;SDS011;10678;51.002;4.786;2022-12-18T16:08:39;28.77;;;14.20;;
21038;SDS011;10678;51.002;4.786;2022-12-18T16:11:04;29.93;;;15.27;;
21038;SDS011;10678;51.002;4.786;2022-12-18T16:13:31;27.83;;;13.70;;
21038;SDS011;10678;51.002;4.786;2022-12-18T16:15:56;25.13;;;13.57;;
21038;SDS011;10678;51.002;4.786;2022-12-18T16:18:22;27.37;;;14.60;;
21038;SDS011;10678;51.002;4.786;2022-12-18T16:20:48;31.10;;;14.77;;
21038;SDS011;10678;51.002;4.786;2022-12-18T16:23:13;26.27;;;13.87;;
21038;SDS011;10678;51.002;4.786;2022-12-18T16:25:39;29.67;;;15.20;;
21038;SDS011;10678;51.002;4.786;2022-12-18T16:28:04;30.77;;;14.20;;
21038;SDS011;10678;51.002;4.786;2022-12-18T16:30:30;28.20;;;13.70;;
21038;SDS011;10678;51.002;4.786;2022-12-18T16:32:57;31.43;;;14.13;;
21038;SDS011;10678;51.002;4.786;2022-12-18T16:35:23;28.10;;;15.10;;
21038;SDS011;10678;51.002;4.786;2022-12-18T16:37:50;29.93;;;14.83;;